Time;durP1;ratioP1;P1;durP2;ratioP2;P2;SDS_P1;SDS_P2;PMS_P1;PMS_P2;Temp;Humidity;BMP_temperature;BMP_pressure;BME280_temperature;BME280_humidity;BME280_pressure;Samples;Min_cycle;Max_cycle;Signal;HPM_P1;HPM_P2
2022/07/10 00:00:12;;;;;;;2.37;0.90;;;;;;;21.41;43.94;98702.97;4501852;31;20155;-76
2022/07/10 00:02:39;;;;;;;2.62;1.20;;;;;;;21.34;44.29;98714.47;4501961;31;20151;-75
2022/07/10 00:05:06;;;;;;;3.58;1.10;;;;;;;21.30;44.70;98708.56;4501482;31;20088;-74
2022/07/10 00:07:31;;;;;;;2.70;1.10;;;;;;;21.19;45.41;98698.94;4487276;31;20641;-76
2022/07/10 00:09:57;;;;;;;2.12;0.90;;;;;;;21.24;45.54;98694.94;4487067;31;20140;-75
2022/07/10 00:12:22;;;;;;;2.92;1.08;;;;;;;20.82;47.01;98699.06;4501740;31;20072;-75
2022/07/10 00:14:47;;;;;;;3.30;1.23;;;;;;;20.87;47.14;98695.94;4501642;31;20075;-76
2022/07/10 00:17:13;;;;;;;2.83;1.05;;;;;;;20.98;47.60;98701.09;4501381;31;20119;-75
2022/07/10 00:19:38;;;;;;;3.83;0.90;;;;;;;20.94;48.28;98692.50;4501649;31;20080;-76
2022/07/10 00:22:04;;;;;;;3.37;1.17;;;;;;;20.57;49.65;98693.41;4501442;31;20114;-76
2022/07/10 00:24:29;;;;;;;3.92;1.15;;;;;;;20.67;49.15;98680.00;4487244;31;20458;-74
2022/07/10 00:26:55;;;;;;;1.85;1.00;;;;;;;20.64;49.16;98679.47;4501343;31;20107;-75
2022/07/10 00:29:20;;;;;;;3.92;1.10;;;;;;;20.57;49.17;98677.38;4501177;31;20520;-75
2022/07/10 00:31:46;;;;;;;2.70;1.17;;;;;;;20.70;48.78;98687.72;4501408;31;20131;-76
2022/07/10 00:34:12;;;;;;;3.10;1.17;;;;;;;20.55;49.08;98689.19;4487242;31;20088;-76
2022/07/10 00:36:38;;;;;;;2.25;1.10;;;;;;;20.23;50.00;98691.31;4487180;31;20403;-76
2022/07/10 00:39:04;;;;;;;2.30;1.00;;;;;;;20.43;49.32;98688.56;4501483;31;20139;-76
2022/07/10 00:41:29;;;;;;;3.55;1.10;;;;;;;20.35;49.56;98697.31;4489061;31;20144;-76
2022/07/10 00:43:59;;;;;;;3.97;1.20;;;;;;;20.32;49.81;98694.09;4476196;31;20427;-76
2022/07/10 00:46:26;;;;;;;2.53;1.17;;;;;;;20.11;50.42;98689.84;4489328;31;20135;-77
2022/07/10 00:48:52;;;;;;;3.50;1.10;;;;;;;20.06;50.69;98691.28;4503854;31;20087;-75
2022/07/10 00:51:19;;;;;;;3.87;1.20;;;;;;;20.10;50.72;98689.97;4503850;31;20110;-75
2022/07/10 00:53:46;;;;;;;3.30;1.10;;;;;;;20.39;49.94;98696.03;4489105;31;20088;-75
2022/07/10 00:56:12;;;;;;;1.02;0.80;;;;;;;20.17;50.54;98685.75;4504090;31;20188;-75
2022/07/10 00:58:39;;;;;;;3.62;1.10;;;;;;;20.40;49.99;98687.03;4503881;31;20100;-75
2022/07/10 01:01:05;;;;;;;5.22;1.30;;;;;;;20.32;50.24;98686.06;4489359;31;20175;-75
2022/07/10 01:03:30;;;;;;;3.17;1.20;;;;;;;20.55;49.54;98686.50;4489055;31;20084;-76
2022/07/10 01:05:55;;;;;;;3.12;1.20;;;;;;;20.48;49.60;98677.41;4503007;31;20092;-75
2022/07/10 01:08:21;;;;;;;2.62;1.20;;;;;;;20.56;49.35;98667.63;4503483;31;20196;-76
2022/07/10 01:10:47;;;;;;;4.10;1.30;;;;;;;20.46;49.52;98668.72;4503196;31;20115;-76
2022/07/10 01:13:13;;;;;;;3.00;1.10;;;;;;;20.19;50.35;98670.38;4503439;31;20159;-76
2022/07/10 01:15:39;;;;;;;2.65;1.10;;;;;;;20.22;50.16;98673.63;4503500;31;20230;-75
2022/07/10 01:18:04;;;;;;;3.90;1.45;;;;;;;20.30;49.95;98664.84;4488651;31;20413;-76
2022/07/10 01:20:32;;;;;;;3.62;1.20;;;;;;;19.74;51.57;98674.63;4489105;31;20093;-76
2022/07/10 01:22:57;;;;;;;3.20;1.23;;;;;;;19.63;51.90;98675.59;4503374;31;20156;-76
2022/07/10 01:25:23;;;;;;;4.25;1.30;;;;;;;19.74;51.86;98671.09;4475877;31;20435;-74
2022/07/10 01:27:48;;;;;;;2.12;0.90;;;;;;;19.63;52.37;98661.41;4502814;31;20389;-75
2022/07/10 01:30:13;;;;;;;3.85;1.33;;;;;;;19.63;52.51;98659.56;4488500;31;20088;-74
2022/07/10 01:32:39;;;;;;;4.25;1.35;;;;;;;19.69;52.52;98670.66;4488840;31;20148;-74
2022/07/10 01:35:05;;;;;;;3.08;1.20;;;;;;;19.72;52.59;98667.72;4503419;31;20103;-76
2022/07/10 01:37:31;;;;;;;3.22;1.20;;;;;;;19.80;52.75;98671.38;4503323;31;20713;-75
2022/07/10 01:39:56;;;;;;;4.43;1.30;;;;;;;19.69;53.37;98671.50;4503214;31;20096;-77
2022/07/10 01:42:22;;;;;;;4.72;1.60;;;;;;;19.37;54.43;98671.84;4488585;31;20116;-76
2022/07/10 01:44:47;;;;;;;3.10;1.05;;;;;;;19.12;55.05;98657.25;4503050;31;20092;-75
2022/07/10 01:47:13;;;;;;;4.47;1.55;;;;;;;19.39;54.19;98656.50;4488638;31;20118;-76
2022/07/10 01:49:38;;;;;;;3.05;1.20;;;;;;;19.07;55.15;98652.34;4503010;31;20072;-76
2022/07/10 01:52:04;;;;;;;3.28;1.20;;;;;;;19.36;54.26;98648.81;4502362;31;20103;-77
2022/07/10 01:54:29;;;;;;;5.30;1.37;;;;;;;18.94;55.38;98652.59;4502840;31;20424;-76
2022/07/10 01:56:55;;;;;;;3.40;1.25;;;;;;;19.12;54.86;98639.38;4488471;31;20115;-76
2022/07/10 01:59:20;;;;;;;4.62;1.48;;;;;;;18.98;55.45;98640.66;4502976;31;20080;-75
2022/07/10 02:01:46;;;;;;;2.97;1.10;;;;;;;19.00;55.44;98641.34;4488614;31;20092;-76
2022/07/10 02:06:55;;;;;;;3.00;1.25;;;;;;;19.03;55.68;98638.41;4490614;31;20119;-77
2022/07/10 02:09:21;;;;;;;4.25;1.50;;;;;;;19.13;55.48;98630.41;4502751;31;20115;-75
2022/07/10 02:11:46;;;;;;;3.37;1.40;;;;;;;19.14;55.51;98633.91;4488652;31;20368;-78
2022/07/10 02:14:11;;;;;;;2.40;1.20;;;;;;;19.21;55.21;98632.38;4502929;31;20111;-77
2022/07/10 02:16:37;;;;;;;5.12;1.48;;;;;;;19.28;55.09;98630.81;4488713;31;20139;-77
2022/07/10 02:19:03;;;;;;;4.43;1.62;;;;;;;19.41;54.66;98631.34;4488745;31;20121;-78
2022/07/10 02:21:29;;;;;;;2.90;1.40;;;;;;;19.19;55.36;98631.66;4503068;31;20102;-78
2022/07/10 02:23:54;;;;;;;3.70;1.40;;;;;;;19.01;56.06;98623.53;4502932;31;20122;-78
2022/07/10 02:26:20;;;;;;;3.80;1.35;;;;;;;19.15;55.67;98627.59;4503002;31;20098;-78
2022/07/10 02:28:45;;;;;;;3.75;1.60;;;;;;;19.17;55.62;98621.13;4488654;31;20393;-77
2022/07/10 02:31:10;;;;;;;4.37;1.35;;;;;;;19.00;56.35;98629.84;4488568;31;20454;-77
2022/07/10 02:33:36;;;;;;;4.60;1.50;;;;;;;18.93;56.60;98632.25;4488623;31;20155;-77
2022/07/10 02:36:03;;;;;;;4.95;1.50;;;;;;;19.07;56.17;98628.31;4502943;31;20091;-77
2022/07/10 02:38:28;;;;;;;4.57;1.70;;;;;;;19.01;56.49;98629.72;4488506;31;20114;-77
2022/07/10 02:40:53;;;;;;;4.12;1.65;;;;;;;19.16;56.04;98624.78;4503012;31;20128;-77
2022/07/10 02:43:19;;;;;;;5.10;1.70;;;;;;;19.10;56.39;98624.50;4502903;31;20120;-77
2022/07/10 02:45:44;;;;;;;5.85;1.70;;;;;;;19.07;56.43;98627.47;4502856;31;20463;-77
2022/07/10 02:48:10;;;;;;;4.25;1.65;;;;;;;19.16;56.20;98623.94;4475335;31;20085;-77
2022/07/10 02:50:36;;;;;;;5.60;1.85;;;;;;;19.24;55.94;98621.41;4502698;31;20088;-76
2022/07/10 02:53:02;;;;;;;3.70;1.60;;;;;;;19.08;56.33;98621.97;4488597;31;20119;-77
2022/07/10 02:55:28;;;;;;;4.45;1.70;;;;;;;18.78;57.31;98613.09;4503166;31;20725;-76
2022/07/10 02:57:53;;;;;;;5.12;2.05;;;;;;;19.22;56.05;98610.03;4502972;31;20088;-77
2022/07/10 03:00:18;;;;;;;5.43;1.70;;;;;;;19.10;56.49;98611.97;4488421;31;20079;-77
2022/07/10 03:02:44;;;;;;;3.78;1.48;;;;;;;19.01;56.75;98602.19;4502428;31;20084;-77
2022/07/10 03:05:09;;;;;;;4.47;1.77;;;;;;;19.31;55.83;98600.28;4501879;31;20083;-77
2022/07/10 03:07:35;;;;;;;4.55;1.80;;;;;;;19.17;56.33;98604.25;4502822;31;20076;-77
2022/07/10 03:10:00;;;;;;;5.90;1.90;;;;;;;19.10;56.49;98606.66;4474895;31;20145;-77
2022/07/10 03:12:26;;;;;;;5.25;1.90;;;;;;;19.24;56.22;98608.06;4502721;31;20096;-76
2022/07/10 03:14:51;;;;;;;5.30;1.70;;;;;;;19.14;56.50;98610.75;4488314;31;20442;-76
2022/07/10 03:17:16;;;;;;;7.50;2.35;;;;;;;19.18;56.43;98605.94;4502583;31;20080;-77
2022/07/10 03:19:42;;;;;;;5.70;2.10;;;;;;;19.28;56.11;98612.13;4502550;31;20080;-77
2022/07/10 03:22:08;;;;;;;6.97;2.33;;;;;;;19.05;56.92;98611.59;4502476;31;20079;-76
2022/07/10 03:24:33;;;;;;;5.50;2.00;;;;;;;19.25;56.28;98609.72;4502511;31;20130;-77
2022/07/10 03:26:59;;;;;;;6.50;2.25;;;;;;;19.08;56.83;98624.62;4502456;31;20389;-77
2022/07/10 03:29:24;;;;;;;6.43;2.20;;;;;;;19.25;56.31;98618.56;4502300;31;20069;-77
2022/07/10 03:31:49;;;;;;;5.80;2.03;;;;;;;19.44;55.92;98622.19;4502420;31;20115;-77
2022/07/10 03:34:15;;;;;;;6.07;1.90;;;;;;;19.19;56.60;98618.31;4502399;31;20452;-76
2022/07/10 03:36:40;;;;;;;6.22;2.20;;;;;;;19.36;56.15;98620.25;4502419;31;20084;-77
2022/07/10 03:39:06;;;;;;;6.18;2.00;;;;;;;18.92;57.54;98611.88;4502239;31;20435;-77
2022/07/10 03:41:31;;;;;;;5.75;2.20;;;;;;;19.04;57.42;98621.44;4502337;31;20163;-77
2022/07/10 03:43:57;;;;;;;5.57;2.08;;;;;;;19.22;56.89;98613.53;4487916;31;20087;-77
2022/07/10 03:46:22;;;;;;;6.57;2.20;;;;;;;19.49;56.21;98609.25;4502168;31;20103;-77
2022/07/10 03:48:47;;;;;;;5.72;2.00;;;;;;;19.45;56.30;98608.72;4502055;31;20081;-77
2022/07/10 03:51:13;;;;;;;5.30;1.90;;;;;;;19.65;55.55;98601.47;4502026;31;20104;-77
2022/07/10 03:53:38;;;;;;;6.28;1.92;;;;;;;19.50;56.07;98596.75;4487758;31;20452;-76
2022/07/10 03:56:04;;;;;;;4.55;1.70;;;;;;;19.42;56.26;98592.13;4502158;31;20076;-77
2022/07/10 03:58:30;;;;;;;3.60;1.60;;;;;;;19.66;55.52;98591.59;4502054;31;20430;-77
2022/07/10 04:00:55;;;;;;;5.70;2.00;;;;;;;19.60;55.74;98586.84;4502023;31;20088;-76
2022/07/10 04:03:21;;;;;;;5.50;1.90;;;;;;;19.56;55.62;98580.12;4502064;31;20088;-77
2022/07/10 04:05:46;;;;;;;5.12;1.62;;;;;;;19.80;54.95;98580.50;4501834;31;20088;-77
2022/07/10 04:08:11;;;;;;;5.37;1.80;;;;;;;19.72;55.08;98580.38;4501845;31;20146;-77
2022/07/10 04:10:37;;;;;;;3.83;1.70;;;;;;;19.77;54.70;98594.12;4487250;31;20115;-77
2022/07/10 04:13:02;;;;;;;5.45;1.65;;;;;;;19.70;54.84;98582.34;4501767;31;20080;-77
2022/07/10 04:15:28;;;;;;;3.95;1.45;;;;;;;19.78;54.50;98585.13;4502820;31;20440;-77
2022/07/10 04:17:53;;;;;;;5.32;1.92;;;;;;;19.70;54.76;98590.34;4504028;31;20148;-76
2022/07/10 04:20:20;;;;;;;4.12;1.60;;;;;;;19.50;55.52;98592.22;4503839;31;20096;-77
2022/07/10 04:22:45;;;;;;;4.85;1.70;;;;;;;19.58;55.52;98594.19;4489653;31;20107;-77
2022/07/10 04:25:11;;;;;;;5.03;1.92;;;;;;;20.18;53.99;98588.44;4489571;31;20392;-76
2022/07/10 04:27:37;;;;;;;5.28;2.20;;;;;;;20.43;53.11;98573.50;4489614;31;20428;-77
2022/07/10 04:30:03;;;;;;;6.22;2.03;;;;;;;20.21;53.65;98585.47;4489423;31;20479;-76
2022/07/10 04:32:29;;;;;;;4.43;1.77;;;;;;;20.05;54.20;98580.78;4489457;31;20100;-76
2022/07/10 04:34:57;;;;;;;6.45;2.03;;;;;;;20.19;54.07;98579.44;4503847;31;20096;-76
2022/07/10 04:37:23;;;;;;;4.90;1.90;;;;;;;20.16;53.89;98579.72;4489432;31;20109;-77
2022/07/10 04:39:48;;;;;;;4.87;1.80;;;;;;;20.48;53.32;98575.75;4489378;31;20124;-77
2022/07/10 04:42:14;;;;;;;4.78;2.08;;;;;;;20.66;52.86;98581.13;4489369;31;20095;-77
2022/07/10 04:44:40;;;;;;;5.12;1.80;;;;;;;20.68;52.39;98579.12;4503707;31;20102;-77
2022/07/10 04:47:06;;;;;;;4.80;1.80;;;;;;;20.98;51.74;98576.03;4503708;31;20133;-77
2022/07/10 04:49:32;;;;;;;5.87;2.00;;;;;;;20.90;52.03;98572.44;4489213;31;20111;-76
2022/07/10 04:51:58;;;;;;;4.75;2.00;;;;;;;20.43;53.29;98571.66;4503976;31;20130;-77
2022/07/10 04:54:23;;;;;;;5.72;1.92;;;;;;;20.23;53.79;98572.81;4489375;31;20088;-76
2022/07/10 04:56:49;;;;;;;5.10;2.08;;;;;;;20.57;53.16;98569.44;4503640;31;20076;-76
2022/07/10 04:59:14;;;;;;;7.47;2.25;;;;;;;20.83;52.33;98556.19;4503656;31;20096;-76
2022/07/10 05:01:40;;;;;;;4.85;1.80;;;;;;;21.04;51.70;98555.84;4476156;31;20104;-76
2022/07/10 05:04:06;;;;;;;5.62;1.83;;;;;;;21.33;50.62;98557.38;4503506;31;20087;-77
2022/07/10 05:06:31;;;;;;;6.05;2.05;;;;;;;21.20;50.97;98555.94;4489255;31;20100;-77
2022/07/10 05:08:57;;;;;;;4.50;1.85;;;;;;;20.71;51.95;98554.75;4503436;31;20123;-77
2022/07/10 05:11:23;;;;;;;5.10;1.90;;;;;;;21.02;51.50;98572.06;4502628;31;20488;-77
2022/07/10 05:13:48;;;;;;;4.80;1.80;;;;;;;21.01;51.56;98558.81;4488973;31;20116;-77
2022/07/10 05:16:15;;;;;;;5.12;1.80;;;;;;;20.87;52.01;98559.38;4503138;31;20361;-76
2022/07/10 05:18:40;;;;;;;5.68;1.90;;;;;;;20.75;52.16;98558.78;4503300;31;20140;-77
2022/07/10 05:21:06;;;;;;;5.05;1.77;;;;;;;20.93;51.98;98551.56;4503276;31;20122;-76
2022/07/10 05:23:32;;;;;;;5.18;1.90;;;;;;;21.37;50.64;98548.84;4489027;31;20122;-77
2022/07/10 05:25:57;;;;;;;5.90;2.05;;;;;;;21.45;50.57;98548.09;4503078;31;20088;-77
2022/07/10 05:28:23;;;;;;;7.18;1.83;;;;;;;21.83;49.27;98543.25;4502785;31;20116;-77
2022/07/10 05:30:48;;;;;;;5.05;2.00;;;;;;;21.63;49.50;98549.84;4503454;31;20122;-77
2022/07/10 05:33:15;;;;;;;5.00;2.00;;;;;;;21.49;49.83;98551.31;4503381;31;20088;-78
2022/07/10 05:35:40;;;;;;;5.70;1.73;;;;;;;21.46;49.99;98541.75;4503242;31;20122;-77
2022/07/10 05:38:06;;;;;;;6.53;1.92;;;;;;;21.82;49.33;98540.72;4503416;31;20096;-78
2022/07/10 05:40:31;;;;;;;6.10;2.15;;;;;;;21.48;50.03;98549.59;4503353;31;20151;-77
2022/07/10 05:42:57;;;;;;;6.30;2.05;;;;;;;21.58;49.65;98550.34;4488863;31;20097;-77
2022/07/10 05:45:22;;;;;;;6.15;2.05;;;;;;;21.73;49.50;98538.03;4488927;31;20092;-77
2022/07/10 05:47:48;;;;;;;5.97;1.80;;;;;;;21.89;48.95;98544.47;4503169;31;20096;-78
2022/07/10 05:50:13;;;;;;;6.18;2.00;;;;;;;22.10;48.39;98544.84;4488834;31;20112;-77
2022/07/10 05:52:39;;;;;;;6.20;2.08;;;;;;;22.15;48.03;98545.19;4503247;31;20114;-77
2022/07/10 05:55:05;;;;;;;7.90;2.30;;;;;;;22.34;47.48;98543.25;4488762;31;20088;-77
2022/07/10 05:57:34;;;;;;;8.18;2.20;;;;;;;21.76;48.43;98542.22;4488805;31;20755;-77
2022/07/10 06:00:00;;;;;;;7.75;2.20;;;;;;;21.89;48.77;98547.13;4488895;31;20530;-77
2022/07/10 06:02:26;;;;;;;5.43;2.08;;;;;;;22.07;48.10;98547.03;4488766;31;20092;-77
2022/07/10 06:04:51;;;;;;;7.53;2.62;;;;;;;22.18;48.01;98552.91;4488929;31;20533;-77
2022/07/10 06:07:17;;;;;;;7.18;2.25;;;;;;;22.25;48.16;98547.78;4488731;31;20177;-77
2022/07/10 06:09:42;;;;;;;6.28;2.20;;;;;;;22.46;47.27;98547.28;4488612;31;20344;-78
2022/07/10 06:12:08;;;;;;;7.80;2.67;;;;;;;22.35;47.63;98542.28;4503133;31;20121;-77
2022/07/10 06:14:34;;;;;;;6.28;2.10;;;;;;;22.16;47.72;98544.19;4488747;31;20096;-76
2022/07/10 06:16:59;;;;;;;4.50;1.90;;;;;;;22.60;46.78;98551.19;4475601;31;20156;-76
2022/07/10 06:19:24;;;;;;;7.35;2.40;;;;;;;22.53;46.80;98539.44;4503278;31;20095;-77
2022/07/10 06:22:30;;;;;;;6.03;2.25;;;;;;;22.06;47.40;98545.31;4489009;31;20086;-76
2022/07/10 06:24:35;;;;;;;7.55;2.30;;;;;;;22.53;46.39;98526.00;4502865;31;20371;-76
2022/07/10 06:27:01;;;;;;;6.03;2.35;;;;;;;22.51;46.46;98536.91;4503097;31;20114;-77
2022/07/10 06:29:26;;;;;;;6.72;2.20;;;;;;;22.88;45.32;98546.31;4502859;31;20102;-76
2022/07/10 06:31:51;;;;;;;5.43;2.20;;;;;;;22.95;45.54;98549.19;4503039;31;20145;-76
2022/07/10 06:34:17;;;;;;;7.55;2.33;;;;;;;23.00;44.78;98543.28;4502952;31;20088;-76
2022/07/10 06:36:42;;;;;;;6.05;1.75;;;;;;;23.36;43.78;98539.25;4502831;31;20383;-77
2022/07/10 06:39:08;;;;;;;6.97;2.25;;;;;;;23.46;43.27;98536.34;4488490;31;20139;-76
2022/07/10 06:41:33;;;;;;;5.45;2.00;;;;;;;23.44;43.06;98537.56;4503195;31;20107;-77
2022/07/10 06:44:00;;;;;;;3.92;1.77;;;;;;;23.41;43.10;98532.50;4488739;31;20144;-76
2022/07/10 06:46:26;;;;;;;4.82;1.95;;;;;;;23.90;41.58;98538.59;4489114;31;20152;-77
2022/07/10 06:48:51;;;;;;;4.97;1.73;;;;;;;23.98;40.61;98540.41;4475254;31;20135;-75
2022/07/10 06:51:17;;;;;;;4.15;1.65;;;;;;;24.13;39.32;98548.56;4488524;31;20340;-77
2022/07/10 06:53:42;;;;;;;4.15;1.67;;;;;;;24.08;39.42;98543.69;4502673;31;20493;-77
2022/07/10 06:56:08;;;;;;;3.78;1.70;;;;;;;24.00;39.41;98549.12;4502734;31;20108;-77
2022/07/10 06:58:33;;;;;;;4.45;1.65;;;;;;;24.36;38.33;98543.22;4502841;31;20451;-77
2022/07/10 07:00:58;;;;;;;4.80;1.70;;;;;;;24.50;37.97;98539.75;4502746;31;20095;-78
2022/07/10 07:03:24;;;;;;;3.72;1.50;;;;;;;24.14;37.38;98534.94;4488207;31;20525;-77
2022/07/10 07:05:49;;;;;;;5.72;1.60;;;;;;;24.15;37.49;98535.78;4502644;31;20088;-78
2022/07/10 07:08:16;;;;;;;3.30;1.60;;;;;;;24.21;37.44;98537.75;4502537;31;20454;-77
2022/07/10 07:10:41;;;;;;;4.82;1.70;;;;;;;23.83;38.45;98548.34;4502478;31;20088;-77
2022/07/10 07:13:09;;;;;;;5.10;1.73;;;;;;;23.65;39.63;98542.38;4502959;31;20416;-77
2022/07/10 07:15:38;;;;;;;;;;;;;;;23.62;38.68;98540.84;4503237;31;20153;-77
2022/07/10 07:18:12;;;;;;;7.12;1.73;;;;;;;24.16;38.32;98548.19;4502996;31;20333;-77
2022/07/10 07:23:23;;;;;;;5.05;1.70;;;;;;;24.29;37.40;98550.31;4490493;31;20689;-77
2022/07/10 07:25:49;;;;;;;3.45;1.60;;;;;;;24.23;37.89;98556.44;4488181;31;20460;-78
2022/07/10 07:28:15;;;;;;;4.10;1.80;;;;;;;23.75;38.78;98549.19;4475039;31;20115;-78
2022/07/10 07:30:41;;;;;;;4.35;1.73;;;;;;;23.50;39.56;98550.28;4487880;31;20080;-77
2022/07/10 07:33:06;;;;;;;4.22;1.75;;;;;;;24.21;37.44;98553.91;4502422;31;20071;-78
2022/07/10 07:35:32;;;;;;;4.25;1.40;;;;;;;23.80;37.57;98547.88;4502125;31;20134;-77
2022/07/10 07:37:57;;;;;;;4.78;1.62;;;;;;;23.89;37.81;98554.91;4487913;31;20104;-78
2022/07/10 07:40:23;;;;;;;4.62;1.58;;;;;;;24.36;37.80;98551.31;4502300;31;20088;-77
2022/07/10 07:42:50;;;;;;;3.80;1.60;;;;;;;24.45;37.69;98547.50;4502244;31;20084;-78
2022/07/10 07:45:15;;;;;;;3.80;1.48;;;;;;;24.52;36.94;98545.00;4475111;31;20467;-78
2022/07/10 07:47:48;;;;;;;5.03;1.60;;;;;;;24.76;36.13;98537.75;4502452;31;20178;-78
2022/07/10 07:50:18;;;;;;;4.78;1.50;;;;;;;24.90;36.50;98535.09;4502976;31;20076;-78
2022/07/10 07:52:44;;;;;;;3.83;1.65;;;;;;;24.90;35.85;98537.78;4504112;31;20461;-77
2022/07/10 07:55:11;;;;;;;3.80;1.50;;;;;;;24.80;35.65;98548.00;4489900;31;20515;-78
2022/07/10 07:57:37;;;;;;;4.03;1.65;;;;;;;24.74;35.69;98548.69;4490063;31;20137;-78
2022/07/10 08:00:05;;;;;;;4.90;1.50;;;;;;;24.41;36.19;98546.19;4490048;31;20110;-77
2022/07/10 08:02:30;;;;;;;;;;;;;;;24.50;36.77;98537.06;4490416;31;20096;-77
2022/07/10 08:04:55;;;;;;;3.60;1.48;;;;;;;24.73;37.03;98552.41;4504352;31;19994;-77
2022/07/10 08:07:21;;;;;;;3.53;1.40;;;;;;;24.88;35.75;98536.31;4504318;31;20446;-77
2022/07/10 08:09:46;;;;;;;2.53;1.17;;;;;;;24.72;35.99;98548.91;4504016;31;20100;-77
2022/07/10 08:12:12;;;;;;;3.33;1.30;;;;;;;24.59;35.18;98547.78;4489607;31;20379;-77
2022/07/10 08:14:38;;;;;;;4.65;1.60;;;;;;;24.64;36.13;98545.41;4503993;31;20096;-77
2022/07/10 08:17:04;;;;;;;3.55;1.50;;;;;;;24.85;36.65;98552.81;4489678;31;20122;-77
2022/07/10 08:19:29;;;;;;;3.95;1.50;;;;;;;24.93;37.15;98556.28;4489505;31;20092;-77
2022/07/10 08:21:54;;;;;;;4.45;1.90;;;;;;;24.82;36.86;98547.78;4503936;31;20102;-77
2022/07/10 08:24:20;;;;;;;3.28;1.52;;;;;;;25.44;36.27;98546.72;4503839;31;20100;-77
2022/07/10 08:26:45;;;;;;;6.03;1.70;;;;;;;25.36;35.51;98541.44;4503752;31;20455;-77
2022/07/10 08:29:11;;;;;;;3.90;1.60;;;;;;;25.69;34.08;98534.66;4503689;31;20143;-77
2022/07/10 08:31:36;;;;;;;4.12;1.60;;;;;;;25.76;33.60;98531.22;4503746;31;20087;-78
2022/07/10 08:34:02;;;;;;;4.35;1.62;;;;;;;26.03;33.12;98540.50;4503961;31;20135;-78
2022/07/10 08:36:27;;;;;;;4.57;1.50;;;;;;;26.18;32.47;98524.28;4489432;31;20108;-78
2022/07/10 08:38:58;;;;;;;5.15;1.60;;;;;;;26.41;33.13;98533.06;4503774;31;20439;-78
2022/07/10 08:41:27;;;;;;;4.15;1.40;;;;;;;26.51;32.76;98532.72;4490031;31;20118;-78
2022/07/10 08:43:53;;;;;;;3.25;1.40;;;;;;;25.77;32.31;98546.34;4503633;31;20100;-78
2022/07/10 08:46:19;;;;;;;3.85;1.52;;;;;;;25.99;32.58;98539.22;4503696;31;20127;-78
2022/07/10 08:48:49;;;;;;;4.43;1.48;;;;;;;26.07;32.81;98537.22;4503597;31;20099;-77
2022/07/10 08:51:36;;;;;;;3.30;1.55;;;;;;;26.15;32.35;98532.75;4476014;31;20183;-77
2022/07/10 08:54:04;;;;;;;3.60;1.40;;;;;;;26.11;32.25;98518.78;4489640;31;20204;-77
2022/07/10 08:56:29;;;;;;;;;;;;;;;25.79;32.71;98534.38;4504061;31;20100;-77
2022/07/10 08:58:55;;;;;;;4.80;1.80;;;;;;;25.71;32.32;98550.66;4503725;31;19963;-77
2022/07/10 09:01:23;;;;;;;6.05;1.67;;;;;;;25.89;32.51;98521.41;4489558;31;20079;-77
2022/07/10 09:03:51;;;;;;;5.12;1.52;;;;;;;26.51;31.88;98521.94;4503940;31;20087;-78
2022/07/10 09:06:16;;;;;;;4.45;1.42;;;;;;;25.83;32.69;98529.44;4503877;31;20092;-77
2022/07/10 09:09:17;;;;;;;4.70;1.55;;;;;;;25.71;33.17;98531.78;4503673;31;20176;-77
2022/07/10 09:11:43;;;;;;;4.57;1.50;;;;;;;25.65;32.67;98532.50;4423266;32;20160;-77
2022/07/10 09:14:11;;;;;;;4.35;1.50;;;;;;;25.60;32.87;98524.16;4397794;32;20401;-77
2022/07/10 09:16:50;;;;;;;3.47;1.50;;;;;;;25.78;33.58;98529.16;4423337;32;20445;-77
2022/07/10 09:19:23;;;;;;;3.83;1.40;;;;;;;25.68;32.81;98518.66;4423437;32;20511;-77
2022/07/10 09:22:08;;;;;;;3.47;1.30;;;;;;;25.82;32.25;98528.59;4410489;32;20090;-77
2022/07/10 09:24:37;;;;;;;3.05;1.33;;;;;;;25.19;33.79;98530.78;4422241;32;20109;-75
2022/07/10 09:27:04;;;;;;;4.25;1.30;;;;;;;25.26;32.75;98531.75;4409974;32;20113;-75
2022/07/10 09:29:30;;;;;;;2.30;1.10;;;;;;;25.28;31.70;98537.81;4422857;32;20114;-75
2022/07/10 09:32:02;;;;;;;4.75;1.20;;;;;;;25.07;32.52;98525.03;4422928;32;20102;-76
2022/07/10 09:34:41;;;;;;;4.62;1.40;;;;;;;25.03;32.73;98512.06;4410404;32;20109;-75
2022/07/10 09:37:26;;;;;;;3.42;1.40;;;;;;;25.36;32.89;98518.00;4410656;32;20105;-74
2022/07/10 09:40:06;;;;;;;4.12;1.45;;;;;;;25.65;32.33;98522.56;4423135;32;20559;-76
2022/07/10 09:42:31;;;;;;;3.20;1.27;;;;;;;25.44;32.53;98511.66;4423128;32;20127;-76
2022/07/10 09:45:24;;;;;;;5.05;1.35;;;;;;;25.24;33.11;98520.31;4437403;31;20372;-76
2022/07/10 09:47:56;;;;;;;3.65;1.42;;;;;;;24.90;33.00;98518.94;4486063;31;20104;-76
2022/07/10 09:50:32;;;;;;;3.17;1.33;;;;;;;25.06;33.34;98526.03;4503046;31;20084;-74
2022/07/10 09:52:59;;;;;;;3.08;1.37;;;;;;;25.16;33.04;98517.66;4475885;31;20088;-75
2022/07/10 09:55:26;;;;;;;3.25;1.40;;;;;;;25.34;33.12;98503.84;4502596;31;20120;-76
2022/07/10 09:58:10;;;;;;;3.90;1.30;;;;;;;25.50;32.94;98519.03;4488931;31;20135;-77
2022/07/10 10:00:37;;;;;;;2.45;1.08;;;;;;;25.50;32.59;98503.69;4488684;31;20083;-75
2022/07/10 10:03:05;;;;;;;4.12;1.40;;;;;;;25.40;31.85;98500.44;4503113;31;20084;-76
2022/07/10 10:05:36;;;;;;;3.00;1.10;;;;;;;25.01;32.90;98498.78;4488093;31;20497;-75
2022/07/10 10:08:09;;;;;;;4.72;1.30;;;;;;;25.36;33.00;98491.03;4502298;31;20092;-75
2022/07/10 10:10:36;;;;;;;4.87;1.20;;;;;;;25.39;32.90;98490.66;4502794;31;20088;-77
2022/07/10 10:13:03;;;;;;;2.70;1.13;;;;;;;25.17;32.05;98487.00;4502424;31;20488;-77
2022/07/10 10:15:30;;;;;;;3.67;1.10;;;;;;;25.24;31.84;98476.34;4488559;31;20183;-75
2022/07/10 10:17:57;;;;;;;3.12;0.90;;;;;;;25.16;31.74;98484.50;4475489;31;20651;-77
2022/07/10 10:20:37;;;;;;;4.10;1.10;;;;;;;25.27;31.57;98484.06;4488716;31;20122;-76
2022/07/10 10:23:10;;;;;;;4.65;1.05;;;;;;;25.08;31.40;98480.03;4481398;32;20356;-74
2022/07/10 10:25:37;;;;;;;4.43;1.00;;;;;;;25.08;31.00;98496.19;4472538;32;20139;-74
2022/07/10 10:28:06;;;;;;;6.05;1.30;;;;;;;25.07;31.17;98459.47;4493464;31;20120;-74
2022/07/10 10:30:32;;;;;;;2.90;0.90;;;;;;;25.19;31.51;98474.19;4480118;31;20530;-76
2022/07/10 10:32:57;;;;;;;3.30;1.10;;;;;;;25.26;30.53;98477.81;4482641;31;20143;-76
2022/07/10 10:35:44;;;;;;;3.85;1.10;;;;;;;25.25;30.65;98486.13;4486044;32;20130;-74
2022/07/10 10:38:09;;;;;;;2.90;1.12;;;;;;;24.99;30.85;98473.88;4495142;31;20118;-78
2022/07/10 10:40:36;;;;;;;3.22;1.10;;;;;;;24.78;29.98;98471.88;4475671;31;20112;-77
2022/07/10 10:43:22;;;;;;;4.07;1.17;;;;;;;24.69;30.37;98471.13;4480403;31;20116;-78
2022/07/10 10:45:48;;;;;;;5.35;1.10;;;;;;;25.01;30.24;98463.75;4488349;31;20113;-77
2022/07/10 10:48:15;;;;;;;5.45;1.37;;;;;;;24.77;31.28;98467.53;4481042;31;20601;-77
2022/07/10 10:50:44;;;;;;;5.00;1.10;;;;;;;25.12;30.88;98457.06;4491498;31;20684;-76
2022/07/10 10:53:32;;;;;;;2.95;1.10;;;;;;;25.02;30.23;98468.13;4479725;31;20092;-76
2022/07/10 10:56:00;;;;;;;2.85;1.10;;;;;;;25.06;30.04;98464.03;4492204;31;20099;-78
2022/07/10 10:58:37;;;;;;;2.58;1.00;;;;;;;24.88;30.70;98459.00;4485105;32;20100;-78
2022/07/10 11:01:04;;;;;;;4.45;1.20;;;;;;;25.24;29.96;98463.69;4476471;31;20149;-77
2022/07/10 11:03:29;;;;;;;4.05;1.10;;;;;;;24.71;30.22;98461.00;4485100;32;20110;-77
2022/07/10 11:05:55;;;;;;;3.08;1.08;;;;;;;24.89;30.70;98449.88;4496537;31;20099;-76
2022/07/10 11:08:38;;;;;;;4.50;1.12;;;;;;;25.32;30.40;98441.19;4480576;31;20159;-79
2022/07/10 11:11:42;;;;;;;4.95;1.25;;;;;;;25.51;29.72;98454.09;4491862;31;20119;-76
2022/07/10 11:14:08;;;;;;;2.97;0.98;;;;;;;25.69;29.64;98447.47;4431608;32;20167;-75
2022/07/10 11:16:34;;;;;;;1.65;1.00;;;;;;;25.82;29.19;98446.81;4433469;32;20108;-75
2022/07/10 11:19:01;;;;;;;4.85;1.00;;;;;;;25.75;29.39;98446.75;4420912;32;20150;-75
2022/07/10 11:21:26;;;;;;;6.53;1.30;;;;;;;25.90;29.39;98443.97;4420943;32;20621;-73
2022/07/10 11:24:32;;;;;;;4.05;1.20;;;;;;;25.59;30.43;98452.34;4410927;32;20121;-73
2022/07/10 11:27:29;;;;;;;5.35;1.17;;;;;;;25.85;29.76;98427.53;4436647;32;20457;-73
2022/07/10 11:30:00;;;;;;;5.20;1.20;;;;;;;25.62;29.98;98446.56;4427221;32;20102;-78
2022/07/10 11:32:27;;;;;;;3.45;1.00;;;;;;;25.51;29.73;98453.28;4421620;32;20109;-82
2022/07/10 11:34:53;;;;;;;3.37;1.15;;;;;;;25.65;29.85;98455.13;4430648;32;20096;-81
2022/07/10 11:37:18;;;;;;;5.97;1.48;;;;;;;25.42;30.41;98443.59;4414708;32;20416;-80
2022/07/10 11:39:44;;;;;;;4.22;1.17;;;;;;;25.44;30.60;98468.53;4421654;32;20161;-81